createdAt,value
2022-08-20T00:00:49.925Z,14.85
2022-08-20T00:03:35.891Z,16.52
2022-08-20T00:06:14.031Z,15.57
2022-08-20T00:08:42.067Z,17.17
2022-08-20T00:11:11.196Z,17.67
2022-08-20T00:13:41.946Z,18.05
2022-08-20T00:18:37.051Z,19.13
2022-08-20T00:21:08.409Z,20.70
2022-08-20T00:23:43.698Z,21.25
2022-08-20T00:26:11.837Z,20.77
2022-08-20T00:28:39.209Z,21.08
2022-08-20T00:31:09.253Z,22.92
2022-08-20T00:33:36.939Z,22.67
2022-08-20T00:36:07.097Z,22.05
2022-08-20T00:38:35.239Z,24.15
2022-08-20T00:41:02.084Z,21.92
2022-08-20T00:43:37.143Z,24.38
2022-08-20T00:46:11.112Z,20.73
2022-08-20T00:48:40.824Z,23.10
2022-08-20T00:51:29.908Z,20.70
2022-08-20T00:54:01.968Z,24.08
2022-08-20T00:56:31.002Z,22.80
2022-08-20T00:58:57.619Z,25.58
2022-08-20T01:01:24.446Z,26.00
2022-08-20T01:03:53.534Z,23.80
2022-08-20T01:06:19.982Z,25.13
2022-08-20T01:08:46.945Z,25.63
2022-08-20T01:11:17.077Z,25.08
2022-08-20T01:13:45.736Z,25.58
2022-08-20T01:16:31.328Z,26.80
2022-08-20T01:19:00.344Z,24.45
2022-08-20T01:21:28.423Z,25.80
2022-08-20T01:24:12.411Z,28.38
2022-08-20T01:26:44.990Z,26.38
2022-08-20T01:29:18.339Z,26.10
2022-08-20T01:31:45.453Z,25.40
2022-08-20T01:34:15.275Z,25.20
2022-08-20T01:36:46.587Z,25.92
2022-08-20T01:39:17.363Z,22.80
2022-08-20T01:42:13.031Z,25.05
2022-08-20T01:44:42.504Z,21.52
2022-08-20T01:47:17.397Z,24.08
2022-08-20T01:49:52.145Z,24.52
2022-08-20T01:52:28.588Z,21.67
2022-08-20T01:54:55.415Z,23.08
2022-08-20T01:57:26.644Z,25.00
2022-08-20T01:59:53.664Z,24.73
2022-08-20T02:02:20.259Z,23.50
2022-08-20T02:04:46.801Z,25.30
2022-08-20T02:07:17.433Z,24.65
2022-08-20T02:09:44.390Z,22.00
2022-08-20T02:12:11.303Z,23.20
2022-08-20T02:14:44.991Z,23.23
2022-08-20T02:17:12.864Z,24.30
2022-08-20T02:19:45.831Z,22.50
2022-08-20T02:22:29.600Z,24.15
2022-08-20T02:24:56.453Z,24.10
2022-08-20T02:27:23.716Z,24.02
2022-08-20T02:29:51.417Z,24.48
2022-08-20T02:32:32.290Z,24.35
2022-08-20T02:35:02.223Z,25.73
2022-08-20T02:37:29.417Z,24.05
2022-08-20T02:39:55.926Z,24.00
2022-08-20T02:42:22.478Z,23.77
2022-08-20T02:44:48.925Z,22.83
2022-08-20T02:47:17.082Z,23.02
2022-08-20T02:49:43.575Z,22.23
2022-08-20T02:52:10.081Z,24.30
2022-08-20T02:54:36.669Z,23.88
2022-08-20T02:57:04.584Z,23.60
2022-08-20T02:59:31.380Z,25.17
2022-08-20T03:02:00.534Z,23.77
2022-08-20T03:04:29.491Z,24.35
2022-08-20T03:06:57.163Z,24.27
2022-08-20T03:09:24.265Z,24.50
2022-08-20T03:11:51.221Z,22.33
2022-08-20T03:14:17.692Z,23.05
2022-08-20T03:16:44.158Z,23.67
2022-08-20T03:19:10.640Z,25.13
2022-08-20T03:21:37.169Z,26.05
2022-08-20T03:24:03.953Z,26.08
2022-08-20T03:26:30.404Z,25.08
2022-08-20T03:28:56.959Z,25.48
2022-08-20T03:31:23.669Z,27.17
2022-08-20T03:33:53.549Z,26.23
2022-08-20T03:36:28.081Z,24.88
2022-08-20T03:39:01.984Z,23.70
2022-08-20T03:41:29.003Z,24.50
2022-08-20T03:43:55.804Z,24.30
2022-08-20T03:46:23.510Z,24.73
2022-08-20T03:48:56.681Z,23.25
2022-08-20T03:51:29.748Z,25.70
2022-08-20T03:53:56.840Z,27.23
2022-08-20T03:56:23.499Z,25.95
2022-08-20T03:58:50.214Z,24.17
2022-08-20T04:01:45.308Z,24.30
2022-08-20T04:04:03.762Z,26.95
2022-08-20T04:06:30.477Z,25.77
2022-08-20T04:08:57.275Z,26.52
2022-08-20T04:11:24.363Z,27.52
2022-08-20T04:13:51.089Z,27.27
2022-08-20T04:16:18.046Z,24.38
2022-08-20T04:19:01.647Z,26.92
2022-08-20T04:21:32.618Z,26.13
2022-08-20T04:24:04.426Z,24.95
2022-08-20T04:26:31.933Z,23.75
2022-08-20T04:28:58.527Z,31.42
2022-08-20T04:31:25.571Z,32.05
2022-08-20T04:33:52.685Z,31.08
2022-08-20T04:36:19.687Z,28.35
2022-08-20T04:38:49.690Z,27.30
2022-08-20T04:41:22.752Z,32.55
2022-08-20T04:43:51.590Z,40.08
2022-08-20T04:46:18.117Z,36.35
2022-08-20T04:48:50.528Z,33.33
2022-08-20T04:51:18.667Z,28.10
2022-08-20T04:53:52.037Z,26.55
2022-08-20T04:56:39.612Z,24.20
2022-08-20T04:59:07.330Z,25.40
2022-08-20T05:01:34.540Z,24.90
2022-08-20T05:04:01.105Z,24.23
2022-08-20T05:06:31.796Z,23.20
2022-08-20T05:09:00.142Z,21.70
2022-08-20T05:11:36.067Z,22.92
2022-08-20T05:14:08.753Z,21.00
2022-08-20T05:16:40.284Z,22.25
2022-08-20T05:19:12.135Z,23.40
2022-08-20T05:21:39.471Z,24.77
2022-08-20T05:24:06.710Z,23.75
2022-08-20T05:26:33.557Z,24.23
2022-08-20T05:29:00.090Z,23.17
2022-08-20T05:31:30.927Z,23.83
2022-08-20T05:34:11.729Z,25.67
2022-08-20T05:36:45.448Z,23.20
2022-08-20T05:39:14.435Z,25.10
2022-08-20T05:41:41.181Z,24.25
2022-08-20T05:44:10.849Z,22.15
2022-08-20T05:46:41.005Z,22.00
2022-08-20T05:49:13.645Z,18.57
2022-08-20T05:51:40.199Z,19.02
2022-08-20T05:54:07.480Z,18.30
2022-08-20T05:56:36.102Z,16.40
2022-08-20T05:59:04.974Z,15.27
2022-08-20T06:01:33.013Z,13.15
2022-08-20T06:04:18.737Z,11.68
2022-08-20T06:06:47.149Z,11.93
2022-08-20T06:09:30.966Z,8.73
2022-08-20T06:12:04.267Z,8.23
2022-08-20T06:14:31.609Z,8.05
2022-08-20T06:17:13.358Z,6.20
2022-08-20T06:19:44.276Z,6.85
2022-08-20T06:24:48.537Z,6.75
2022-08-20T06:27:16.458Z,6.47
2022-08-20T06:29:43.493Z,5.82
2022-08-20T06:32:11.425Z,7.20
2022-08-20T06:34:37.918Z,5.50
2022-08-20T06:37:31.366Z,6.50
2022-08-20T06:42:29.946Z,5.60
2022-08-20T06:44:56.509Z,6.82
2022-08-20T06:47:23.510Z,6.53
2022-08-20T06:49:50.424Z,7.47
2022-08-20T06:52:17.273Z,6.85
2022-08-20T06:54:45.577Z,7.60
2022-08-20T06:57:12.795Z,7.13
2022-08-20T06:59:39.327Z,8.05
2022-08-20T07:02:05.811Z,8.07
2022-08-20T07:04:32.397Z,8.65
2022-08-20T07:06:59.353Z,6.95
2022-08-20T07:09:27.216Z,7.82
2022-08-20T07:11:53.696Z,9.18
2022-08-20T07:14:20.827Z,10.75
2022-08-20T07:16:47.470Z,10.00
2022-08-20T07:19:14.667Z,11.55
2022-08-20T07:21:41.451Z,13.15
2022-08-20T07:24:09.665Z,13.27
2022-08-20T07:26:36.517Z,13.98
2022-08-20T07:29:03.497Z,16.77
2022-08-20T07:31:48.604Z,14.85
2022-08-20T07:34:15.097Z,17.13
2022-08-20T07:36:41.667Z,18.35
2022-08-20T07:39:08.220Z,20.55
2022-08-20T07:41:36.165Z,16.98
2022-08-20T07:44:02.791Z,16.45
2022-08-20T07:46:31.308Z,20.58
2022-08-20T07:48:58.066Z,18.33
2022-08-20T07:51:24.542Z,20.80
2022-08-20T07:53:51.793Z,19.80
2022-08-20T07:56:24.240Z,20.98
2022-08-20T07:58:55.373Z,19.48
2022-08-20T08:01:29.600Z,20.90
2022-08-20T08:03:57.652Z,20.92
2022-08-20T08:06:29.046Z,20.88
2022-08-20T08:09:05.463Z,20.50
2022-08-20T08:11:34.978Z,20.02
2022-08-20T08:14:05.258Z,18.67
2022-08-20T08:16:32.415Z,17.25
2022-08-20T08:19:01.207Z,22.83
2022-08-20T08:21:29.010Z,18.38
2022-08-20T08:23:56.104Z,17.60
2022-08-20T08:26:22.610Z,16.77
2022-08-20T08:28:49.295Z,16.85
2022-08-20T08:31:15.875Z,17.08
2022-08-20T08:33:43.022Z,17.92
2022-08-20T08:36:12.196Z,16.55
2022-08-20T08:38:42.894Z,14.88
2022-08-20T08:41:20.319Z,14.05
2022-08-20T08:43:49.214Z,14.00
2022-08-20T08:46:22.524Z,14.63
2022-08-20T08:48:53.449Z,12.93
2022-08-20T08:51:58.353Z,13.65
2022-08-20T08:54:28.774Z,12.38
2022-08-20T08:56:55.691Z,12.55
2022-08-20T08:59:23.282Z,12.55
2022-08-20T09:01:57.139Z,11.35
2022-08-20T09:04:37.950Z,11.90
2022-08-20T09:07:10.884Z,10.93
2022-08-20T09:09:41.737Z,13.05
2022-08-20T09:12:11.761Z,10.65
2022-08-20T09:14:38.833Z,10.60
2022-08-20T09:17:06.288Z,9.93
2022-08-20T09:19:33.617Z,9.88
2022-08-20T09:22:07.459Z,8.95
2022-08-20T09:24:33.948Z,10.55
2022-08-20T09:27:00.409Z,10.13
2022-08-20T09:29:27.057Z,10.40
2022-08-20T09:32:04.739Z,7.88
2022-08-20T09:34:34.469Z,8.75
2022-08-20T09:37:00.994Z,8.93
2022-08-20T09:39:27.457Z,8.05
2022-08-20T09:41:53.997Z,8.15
2022-08-20T09:44:20.502Z,7.82
2022-08-20T09:46:46.999Z,8.15
2022-08-20T09:49:13.470Z,7.90
2022-08-20T09:51:39.996Z,7.57
2022-08-20T09:54:06.589Z,7.18
2022-08-20T09:56:34.692Z,6.13
2022-08-20T09:59:02.998Z,6.35
2022-08-20T10:01:29.796Z,6.70
2022-08-20T10:03:56.296Z,5.93
2022-08-20T10:06:22.872Z,6.05
2022-08-20T10:08:50.107Z,5.10
2022-08-20T10:11:17.860Z,7.13
2022-08-20T10:13:44.892Z,6.13
2022-08-20T10:16:11.409Z,6.50
2022-08-20T10:18:37.958Z,6.93
2022-08-20T10:21:10.056Z,6.28
2022-08-20T10:23:36.556Z,5.95
2022-08-20T10:26:03.034Z,6.07
2022-08-20T10:28:29.513Z,5.85
2022-08-20T10:30:55.989Z,6.93
2022-08-20T10:33:22.460Z,5.65
2022-08-20T10:35:48.953Z,4.97
2022-08-20T10:38:17.184Z,4.88
2022-08-20T10:40:52.232Z,3.85
2022-08-20T10:43:19.237Z,5.07
2022-08-20T10:45:45.682Z,4.50
2022-08-20T10:48:12.155Z,5.28
2022-08-20T10:50:38.661Z,4.95
2022-08-20T10:53:05.138Z,3.75
2022-08-20T10:55:31.684Z,3.75
2022-08-20T10:57:58.314Z,4.07
2022-08-20T11:00:25.064Z,4.50
2022-08-20T11:02:51.873Z,3.75
2022-08-20T11:05:18.502Z,3.53
2022-08-20T11:07:54.854Z,3.60
2022-08-20T11:10:27.423Z,3.05
2022-08-20T11:12:54.632Z,3.03
2022-08-20T11:15:21.227Z,2.03
2022-08-20T11:17:47.745Z,3.10
2022-08-20T11:20:16.354Z,2.70
2022-08-20T11:22:42.851Z,2.45
2022-08-20T11:25:10.360Z,2.05
2022-08-20T11:27:44.223Z,2.00
2022-08-20T11:30:14.500Z,1.75
2022-08-20T11:35:38.241Z,2.20
2022-08-20T11:37:55.929Z,1.48
2022-08-20T11:40:23.531Z,1.92
2022-08-20T11:43:13.176Z,2.92
2022-08-20T11:45:37.634Z,1.63
2022-08-20T11:48:04.981Z,1.70
2022-08-20T11:50:31.690Z,1.77
2022-08-20T11:52:58.329Z,1.83
2022-08-20T11:55:28.615Z,1.85
2022-08-20T11:57:59.605Z,1.38
2022-08-20T12:00:32.163Z,1.63
2022-08-20T12:03:01.196Z,2.30
2022-08-20T12:05:29.567Z,1.73
2022-08-20T12:07:57.761Z,1.80
2022-08-20T12:10:26.569Z,1.20
2022-08-20T12:12:53.349Z,1.50
2022-08-20T12:15:20.044Z,2.03
2022-08-20T12:17:46.582Z,1.38
2022-08-20T12:20:15.205Z,1.27
2022-08-20T12:22:42.600Z,0.93
2022-08-20T12:25:09.639Z,1.10
2022-08-20T12:27:37.490Z,1.23
2022-08-20T12:30:14.138Z,1.10
2022-08-20T12:32:42.228Z,1.20
2022-08-20T12:35:10.755Z,1.08
2022-08-20T12:37:37.384Z,1.23
2022-08-20T12:40:08.614Z,1.10
2022-08-20T12:42:35.283Z,1.05
2022-08-20T12:45:02.135Z,0.82
2022-08-20T12:47:34.794Z,1.08
2022-08-20T12:50:08.624Z,1.13
2022-08-20T12:52:35.546Z,1.15
2022-08-20T12:55:02.811Z,1.40
2022-08-20T12:57:35.085Z,1.23
2022-08-20T13:00:10.493Z,1.38
2022-08-20T13:02:38.719Z,1.13
2022-08-20T13:05:06.917Z,1.30
2022-08-20T13:07:34.189Z,1.60
2022-08-20T13:10:01.555Z,1.67
2022-08-20T13:12:28.278Z,2.03
2022-08-20T13:14:54.730Z,1.63
2022-08-20T13:17:24.334Z,1.05
2022-08-20T13:20:08.274Z,1.52
2022-08-20T13:22:34.960Z,1.10
2022-08-20T13:25:01.504Z,1.75
2022-08-20T13:27:27.974Z,1.33
2022-08-20T13:29:58.779Z,1.27
2022-08-20T13:32:25.472Z,1.33
2022-08-20T13:34:51.989Z,1.45
2022-08-20T13:37:25.791Z,2.13
2022-08-20T13:39:53.912Z,0.90
2022-08-20T13:42:20.864Z,1.30
2022-08-20T13:44:48.160Z,1.30
2022-08-20T13:47:15.008Z,1.02
2022-08-20T13:49:41.500Z,1.25
2022-08-20T13:52:08.558Z,1.25
2022-08-20T13:54:35.086Z,1.52
2022-08-20T13:57:19.482Z,1.02
2022-08-20T13:59:48.252Z,0.93
2022-08-20T14:02:16.417Z,1.10
2022-08-20T14:04:43.149Z,1.10
2022-08-20T14:07:15.237Z,1.10
2022-08-20T14:09:44.394Z,1.45
2022-08-20T14:12:13.047Z,1.30
2022-08-20T14:14:40.977Z,1.30
2022-08-20T14:17:24.590Z,1.08
2022-08-20T14:19:54.456Z,1.08
2022-08-20T14:22:23.981Z,1.20
2022-08-20T14:24:50.789Z,0.90
2022-08-20T14:27:20.500Z,1.33
2022-08-20T14:29:48.546Z,1.02
2022-08-20T14:32:15.551Z,0.70
2022-08-20T14:34:42.778Z,1.08
2022-08-20T14:37:10.814Z,0.95
2022-08-20T14:39:37.451Z,1.27
2022-08-20T14:42:04.182Z,1.42
2022-08-20T14:44:30.631Z,1.02
2022-08-20T14:46:57.179Z,1.08
2022-08-20T14:49:23.722Z,1.25
2022-08-20T14:51:50.173Z,1.13
2022-08-20T14:54:16.669Z,0.95
2022-08-20T14:56:43.123Z,0.63
2022-08-20T14:59:09.674Z,1.30
2022-08-20T15:01:36.261Z,1.02
2022-08-20T15:04:03.011Z,1.20
2022-08-20T15:06:31.157Z,1.00
2022-08-20T15:08:57.621Z,1.17
2022-08-20T15:11:24.088Z,1.55
2022-08-20T15:13:50.564Z,1.15
2022-08-20T15:16:17.038Z,1.52
2022-08-20T15:18:43.492Z,1.05
2022-08-20T15:21:10.333Z,1.10
2022-08-20T15:23:37.028Z,0.85
2022-08-20T15:26:03.529Z,1.10
2022-08-20T15:28:29.991Z,1.30
2022-08-20T15:30:56.537Z,1.10
2022-08-20T15:33:23.045Z,1.10
2022-08-20T15:35:49.542Z,1.02
2022-08-20T15:38:16.086Z,0.57
2022-08-20T15:40:42.676Z,0.90
2022-08-20T15:43:09.209Z,1.13
2022-08-20T15:45:36.236Z,1.02
2022-08-20T15:48:15.099Z,0.80
2022-08-20T15:50:52.059Z,1.13
2022-08-20T15:53:39.488Z,0.98
2022-08-20T15:56:24.261Z,1.23
2022-08-20T15:59:08.873Z,1.13
2022-08-20T16:02:04.879Z,1.23
2022-08-20T16:04:40.231Z,0.98
2022-08-20T16:07:13.213Z,1.00
2022-08-20T16:10:21.019Z,1.75
2022-08-20T16:12:51.852Z,1.25
2022-08-20T16:15:24.650Z,0.85
2022-08-20T16:18:05.497Z,1.30
2022-08-20T16:20:41.854Z,1.10
2022-08-20T16:23:09.309Z,1.45
2022-08-20T16:26:02.052Z,1.02
2022-08-20T16:28:39.112Z,1.17
2022-08-20T16:31:10.050Z,0.93
2022-08-20T16:34:33.336Z,1.27
2022-08-20T16:37:10.170Z,1.55
2022-08-20T16:39:49.709Z,1.02
2022-08-20T16:42:20.893Z,1.80
2022-08-20T16:44:49.305Z,1.50
2022-08-20T16:47:42.014Z,1.17
2022-08-20T16:50:16.749Z,1.70
2022-08-20T16:52:47.025Z,1.10
2022-08-20T16:57:40.966Z,1.17
2022-08-20T17:00:29.944Z,0.90
2022-08-20T17:02:59.835Z,1.05
2022-08-20T17:05:31.832Z,0.80
2022-08-20T17:08:03.644Z,1.50
2022-08-20T17:10:37.391Z,0.82
2022-08-20T17:13:13.162Z,1.10
2022-08-20T17:15:43.470Z,0.88
2022-08-20T17:18:24.476Z,0.80
2022-08-20T17:20:51.477Z,0.93
2022-08-20T17:23:20.986Z,0.98
2022-08-20T17:26:01.074Z,1.33
2022-08-20T17:28:31.925Z,0.98
2022-08-20T17:31:01.213Z,0.75
2022-08-20T17:33:36.817Z,1.27
2022-08-20T17:36:20.086Z,1.35
2022-08-20T17:38:49.981Z,1.40
2022-08-20T17:41:34.513Z,1.25
2022-08-20T17:44:04.613Z,1.42
2022-08-20T17:46:34.933Z,1.60
2022-08-20T17:51:38.416Z,2.53
2022-08-20T17:54:28.021Z,5.13
2022-08-20T17:57:00.104Z,4.03
2022-08-20T18:00:01.303Z,2.90
2022-08-20T18:02:23.361Z,2.08
2022-08-20T18:04:53.322Z,2.53
2022-08-20T18:07:33.916Z,2.10
2022-08-20T18:10:14.011Z,2.33
2022-08-20T18:13:01.226Z,2.00
2022-08-20T18:15:50.765Z,1.55
2022-08-20T18:18:24.866Z,1.57
2022-08-20T18:21:15.750Z,1.48
2022-08-20T18:24:12.122Z,1.67
2022-08-20T18:26:58.046Z,1.33
2022-08-20T18:29:32.117Z,1.20
2022-08-20T18:32:02.164Z,1.80
2022-08-20T18:34:28.995Z,2.80
2022-08-20T18:37:02.464Z,2.30
2022-08-20T18:39:30.175Z,2.20
2022-08-20T18:42:21.326Z,2.17
2022-08-20T18:44:51.126Z,2.20
2022-08-20T18:47:42.519Z,2.20
2022-08-20T18:50:28.396Z,2.08
2022-08-20T18:53:21.084Z,1.70
2022-08-20T18:56:01.155Z,2.42
2022-08-20T18:58:47.729Z,2.67
2022-08-20T19:01:14.959Z,3.25
2022-08-20T19:03:50.794Z,2.70
2022-08-20T19:06:32.365Z,2.70
2022-08-20T19:09:11.756Z,2.67
2022-08-20T19:11:57.793Z,3.08
2022-08-20T19:14:39.554Z,3.28
2022-08-20T19:17:11.320Z,3.15
2022-08-20T19:19:38.960Z,3.30
2022-08-20T19:22:06.254Z,2.83
2022-08-20T19:24:35.676Z,3.22
2022-08-20T19:27:07.656Z,3.30
2022-08-20T19:29:37.851Z,3.33
2022-08-20T19:32:07.579Z,2.55
2022-08-20T19:34:35.759Z,4.18
2022-08-20T19:37:35.244Z,2.50
2022-08-20T19:40:07.787Z,2.33
2022-08-20T19:42:42.842Z,2.22
2022-08-20T19:45:18.610Z,2.42
2022-08-20T19:48:11.929Z,2.03
2022-08-20T19:50:56.981Z,2.00
2022-08-20T19:53:30.708Z,1.92
2022-08-20T19:56:04.526Z,2.28
2022-08-20T19:58:32.585Z,2.05
2022-08-20T20:01:02.228Z,2.20
2022-08-20T20:03:35.137Z,1.92
2022-08-20T20:06:18.018Z,2.55
2022-08-20T20:09:00.464Z,2.88
2022-08-20T20:11:32.752Z,2.38
2022-08-20T20:14:10.252Z,2.75
2022-08-20T20:16:38.655Z,2.63
2022-08-20T20:19:25.394Z,3.50
2022-08-20T20:22:20.188Z,3.47
2022-08-20T20:24:56.629Z,2.70
2022-08-20T20:27:26.290Z,3.15
2022-08-20T20:29:59.947Z,2.72
2022-08-20T20:32:27.568Z,2.65
2022-08-20T20:34:58.235Z,2.40
2022-08-20T20:37:49.400Z,2.85
2022-08-20T20:40:26.875Z,3.83
2022-08-20T20:43:21.898Z,2.97
2022-08-20T20:45:58.929Z,3.35
2022-08-20T20:48:27.802Z,3.15
2022-08-20T20:50:59.639Z,3.28
2022-08-20T20:53:47.280Z,4.00
2022-08-20T20:56:35.144Z,3.38
2022-08-20T20:59:06.580Z,4.22
2022-08-20T21:01:45.792Z,3.45
2022-08-20T21:04:18.591Z,3.85
2022-08-20T21:06:45.115Z,5.35
2022-08-20T21:09:12.129Z,3.47
2022-08-20T21:11:38.588Z,3.80
2022-08-20T21:14:05.074Z,3.53
2022-08-20T21:16:31.567Z,4.60
2022-08-20T21:18:58.442Z,4.30
2022-08-20T21:21:25.212Z,4.03
2022-08-20T21:23:51.710Z,4.00
2022-08-20T21:26:18.691Z,4.63
2022-08-20T21:28:45.378Z,4.18
2022-08-20T21:31:12.825Z,3.80
2022-08-20T21:33:39.264Z,4.22
2022-08-20T21:36:06.599Z,4.05
2022-08-20T21:38:33.253Z,4.50
2022-08-20T21:40:59.878Z,3.72
2022-08-20T21:43:26.560Z,3.28
2022-08-20T21:45:53.268Z,4.38
2022-08-20T21:48:20.367Z,3.60
2022-08-20T21:50:46.902Z,4.32
2022-08-20T21:53:13.555Z,4.38
2022-08-20T21:55:40.684Z,5.22
2022-08-20T21:58:07.956Z,4.55
2022-08-20T22:00:58.011Z,5.03
2022-08-20T22:03:29.145Z,5.07
2022-08-20T22:05:58.715Z,5.43
2022-08-20T22:08:28.469Z,5.60
2022-08-20T22:10:57.092Z,5.03
2022-08-20T22:13:25.775Z,6.07
2022-08-20T22:15:52.295Z,6.35
2022-08-20T22:18:18.752Z,5.30
2022-08-20T22:20:45.320Z,6.30
2022-08-20T22:23:12.155Z,6.13
2022-08-20T22:25:39.984Z,5.28
2022-08-20T22:28:07.026Z,5.80
2022-08-20T22:30:34.647Z,6.57
2022-08-20T22:33:07.873Z,6.53
2022-08-20T22:35:35.029Z,6.10
2022-08-20T22:38:01.748Z,7.97
2022-08-20T22:40:28.435Z,5.85
2022-08-20T22:42:55.653Z,6.80
2022-08-20T22:45:22.336Z,6.32
2022-08-20T22:47:48.825Z,7.30
2022-08-20T22:50:24.883Z,7.93
2022-08-20T22:52:52.426Z,7.70
2022-08-20T22:55:19.351Z,8.00
2022-08-20T22:57:46.806Z,7.28
2022-08-20T23:00:16.882Z,6.55
2022-08-20T23:02:49.423Z,6.30
2022-08-20T23:05:20.136Z,7.03
2022-08-20T23:10:20.032Z,7.25
2022-08-20T23:12:46.456Z,5.97
2022-08-20T23:15:14.139Z,7.90
2022-08-20T23:17:40.810Z,7.03
2022-08-20T23:20:10.326Z,6.65
2022-08-20T23:22:36.970Z,6.47
2022-08-20T23:25:08.942Z,8.10
2022-08-20T23:27:41.177Z,7.20
2022-08-20T23:30:08.085Z,7.05
2022-08-20T23:32:34.551Z,7.40
2022-08-20T23:35:01.017Z,7.47
2022-08-20T23:37:27.505Z,6.50
2022-08-20T23:39:54.023Z,8.80
2022-08-20T23:42:20.505Z,8.05
2022-08-20T23:44:46.970Z,6.82
2022-08-20T23:47:19.609Z,7.50
2022-08-20T23:49:46.784Z,11.52
2022-08-20T23:52:13.413Z,10.93
2022-08-20T23:54:40.066Z,13.00
2022-08-20T23:57:08.397Z,12.35
2022-08-20T23:59:35.610Z,12.48
